createdAt,value
2023-08-11T00:06:09.665Z,3.90
2023-08-11T00:16:11.718Z,5.95
2023-08-11T00:26:15.038Z,5.03
2023-08-11T00:36:16.947Z,4.03
2023-08-11T00:46:22.803Z,4.35
2023-08-11T00:56:24.863Z,3.42
2023-08-11T01:06:37.203Z,3.30
2023-08-11T01:16:39.613Z,3.33
2023-08-11T01:26:43.058Z,3.53
2023-08-11T01:36:44.989Z,4.40
2023-08-11T01:46:48.531Z,3.88
2023-08-11T01:56:50.777Z,4.22
2023-08-11T02:06:54.079Z,3.95
2023-08-11T02:16:55.976Z,4.20
2023-08-11T02:26:59.461Z,4.07
2023-08-11T02:37:01.496Z,4.15
2023-08-11T02:47:04.876Z,4.97
2023-08-11T02:57:06.977Z,3.95
2023-08-11T03:07:10.329Z,4.15
2023-08-11T03:17:12.435Z,3.90
2023-08-11T03:27:16.134Z,3.92
2023-08-11T03:37:18.110Z,5.32
2023-08-11T03:47:21.594Z,5.03
2023-08-11T03:57:23.567Z,4.15
2023-08-11T04:07:26.968Z,3.40
2023-08-11T04:17:28.933Z,3.85
2023-08-11T04:27:32.261Z,3.33
2023-08-11T04:37:34.419Z,3.03
2023-08-11T04:47:37.970Z,3.30
2023-08-11T04:57:39.939Z,4.28
2023-08-11T05:07:43.327Z,4.82
2023-08-11T05:17:45.373Z,2.53
2023-08-11T05:27:48.783Z,2.20
2023-08-11T05:37:50.761Z,1.98
2023-08-11T05:47:54.118Z,1.30
2023-08-11T05:57:56.114Z,1.17
2023-08-11T06:08:06.739Z,1.48
2023-08-11T06:18:09.171Z,4.80
2023-08-11T06:28:12.590Z,5.82
2023-08-11T06:38:14.558Z,5.78
2023-08-11T06:48:17.913Z,6.20
2023-08-11T06:58:19.870Z,5.40
2023-08-11T07:08:23.743Z,3.00
2023-08-11T07:18:25.782Z,2.92
2023-08-11T07:28:29.161Z,1.83
2023-08-11T07:38:31.149Z,1.95
2023-08-11T07:48:34.580Z,2.30
2023-08-11T07:58:36.548Z,3.30
2023-08-11T08:08:39.883Z,3.03
2023-08-11T08:18:41.973Z,3.72
2023-08-11T08:28:45.316Z,3.47
2023-08-11T08:38:47.308Z,3.75
2023-08-11T08:48:56.006Z,3.40
2023-08-11T08:59:20.674Z,2.80
2023-08-11T09:09:24.447Z,2.92
2023-08-11T09:19:26.464Z,3.25
2023-08-11T09:29:29.781Z,2.88
2023-08-11T09:39:32.524Z,3.05
2023-08-11T09:49:35.832Z,3.10
2023-08-11T09:59:39.644Z,3.90
2023-08-11T10:09:45.037Z,3.13
2023-08-11T10:19:47.166Z,2.30
2023-08-11T10:29:51.910Z,2.33
2023-08-11T10:40:03.871Z,2.70
2023-08-11T10:50:09.882Z,2.78
2023-08-11T11:00:12.661Z,2.20
2023-08-11T11:10:19.736Z,2.28
2023-08-11T11:20:23.256Z,1.70
2023-08-11T11:30:26.831Z,2.85
2023-08-11T11:40:30.139Z,2.83
2023-08-11T11:50:33.488Z,1.63
2023-08-11T12:00:35.450Z,2.00
2023-08-11T12:10:38.780Z,2.03
2023-08-11T12:20:41.743Z,2.45
2023-08-11T12:30:45.080Z,1.77
2023-08-11T12:40:47.975Z,1.45
2023-08-11T12:50:51.296Z,1.63
2023-08-11T13:00:53.212Z,2.50
2023-08-11T13:10:56.505Z,1.95
2023-08-11T13:20:58.453Z,2.20
2023-08-11T13:31:01.793Z,3.00
2023-08-11T13:41:03.770Z,3.30
2023-08-11T13:51:07.215Z,2.65
2023-08-11T14:01:09.280Z,2.38
2023-08-11T14:11:12.654Z,2.47
2023-08-11T14:21:14.966Z,2.20
2023-08-11T14:31:18.256Z,2.25
2023-08-11T14:41:20.325Z,1.70
2023-08-11T14:51:23.640Z,1.90
2023-08-11T15:01:25.824Z,2.88
2023-08-11T15:11:29.179Z,1.85
2023-08-11T15:21:31.159Z,2.15
2023-08-11T15:31:34.497Z,1.65
2023-08-11T15:41:36.454Z,1.63
2023-08-11T15:51:39.783Z,1.35
2023-08-11T16:01:42.939Z,1.52
2023-08-11T16:11:46.369Z,1.67
2023-08-11T16:21:48.320Z,1.42
2023-08-11T16:31:51.727Z,1.60
2023-08-11T16:41:53.728Z,1.70
2023-08-11T16:51:57.019Z,1.40
2023-08-11T17:01:59.080Z,1.35
2023-08-11T17:12:02.391Z,1.30
2023-08-11T17:22:04.605Z,1.40
2023-08-11T17:32:08.442Z,1.38
2023-08-11T17:42:10.900Z,1.13
2023-08-11T17:52:14.420Z,1.33
2023-08-11T18:02:16.364Z,1.00
2023-08-11T18:12:19.702Z,1.27
2023-08-11T18:22:22.225Z,1.13
2023-08-11T18:32:25.625Z,1.00
2023-08-11T18:42:27.723Z,1.30
2023-08-11T18:53:29.627Z,1.20
2023-08-11T19:14:51.327Z,1.70
2023-08-11T19:27:43.054Z,3.20
2023-08-11T19:36:18.641Z,2.63
2023-08-11T19:46:20.636Z,1.92
2023-08-11T19:56:24.040Z,1.73
2023-08-11T20:06:26.095Z,2.40
2023-08-11T20:17:58.289Z,1.80
2023-08-11T20:27:44.504Z,2.35
2023-08-11T20:38:00.984Z,2.25
2023-08-11T20:48:05.502Z,3.20
2023-08-11T20:58:07.486Z,2.65
2023-08-11T21:08:15.235Z,2.10
2023-08-11T21:18:17.224Z,2.95
2023-08-11T21:28:20.956Z,3.25
2023-08-11T21:49:19.259Z,3.15
2023-08-11T21:59:21.225Z,3.42
2023-08-11T22:09:24.541Z,3.17
2023-08-11T22:19:26.459Z,3.22
2023-08-11T22:29:29.769Z,3.13
2023-08-11T22:39:31.728Z,3.30
2023-08-11T22:49:35.065Z,2.90
2023-08-11T22:59:37.050Z,4.15
2023-08-11T23:09:40.347Z,3.83
2023-08-11T23:19:42.298Z,3.20
2023-08-11T23:29:45.701Z,5.13
2023-08-11T23:39:47.653Z,3.70
2023-08-11T23:49:50.981Z,3.72
2023-08-11T23:59:52.929Z,3.17
